createdAt,value
2022-11-27T00:01:32.983Z,78.76
2022-11-27T00:04:00.370Z,79.27
2022-11-27T00:06:28.568Z,79.30
2022-11-27T00:08:59.757Z,79.38
2022-11-27T00:11:28.860Z,79.75
2022-11-27T00:13:55.810Z,79.61
2022-11-27T00:16:23.280Z,79.40
2022-11-27T00:18:50.541Z,79.47
2022-11-27T00:21:19.144Z,79.56
2022-11-27T00:23:45.995Z,79.69
2022-11-27T00:26:13.169Z,80.00
2022-11-27T00:28:39.995Z,80.14
2022-11-27T00:31:11.243Z,79.83
2022-11-27T00:33:38.009Z,80.01
2022-11-27T00:36:06.103Z,80.34
2022-11-27T00:38:37.400Z,80.61
2022-11-27T00:41:10.530Z,80.77
2022-11-27T00:43:44.166Z,80.33
2022-11-27T00:46:21.662Z,80.08
2022-11-27T00:48:51.184Z,80.43
2022-11-27T00:51:21.840Z,80.24
2022-11-27T00:53:48.952Z,80.26
2022-11-27T00:56:21.693Z,79.88
2022-11-27T00:58:49.849Z,79.37
2022-11-27T01:01:19.169Z,78.36
2022-11-27T01:03:46.651Z,78.69
2022-11-27T01:06:14.699Z,79.26
2022-11-27T01:08:41.643Z,78.92
2022-11-27T01:11:12.363Z,79.33
2022-11-27T01:13:39.186Z,78.18
2022-11-27T01:16:09.553Z,77.95
2022-11-27T01:18:37.504Z,77.77
2022-11-27T01:21:05.090Z,78.75
2022-11-27T01:23:32.164Z,78.89
2022-11-27T01:26:03.078Z,79.26
2022-11-27T01:28:30.515Z,78.96
2022-11-27T01:30:57.488Z,78.04
2022-11-27T01:33:24.450Z,78.07
2022-11-27T01:35:59.347Z,77.71
2022-11-27T01:38:27.403Z,77.78
2022-11-27T01:41:03.648Z,78.22
2022-11-27T01:43:42.173Z,78.23
2022-11-27T01:46:30.484Z,77.63
2022-11-27T01:49:23.710Z,77.17
2022-11-27T01:51:55.729Z,77.08
2022-11-27T01:54:26.484Z,77.25
2022-11-27T01:56:56.359Z,77.01
2022-11-27T01:59:23.799Z,77.67
2022-11-27T02:01:50.790Z,77.93
2022-11-27T02:04:19.019Z,78.20
2022-11-27T02:06:46.173Z,78.07
2022-11-27T02:09:13.250Z,78.22
2022-11-27T02:12:06.266Z,78.28
2022-11-27T02:14:50.414Z,78.38
2022-11-27T02:17:19.954Z,78.27
2022-11-27T02:20:02.701Z,78.12
2022-11-27T02:23:11.122Z,78.40
2022-11-27T02:25:50.526Z,78.18
2022-11-27T02:28:17.239Z,78.51
2022-11-27T02:30:47.420Z,78.37
2022-11-27T02:33:18.837Z,77.89
2022-11-27T02:35:52.507Z,77.66
2022-11-27T02:38:32.746Z,77.64
2022-11-27T02:41:10.468Z,77.78
2022-11-27T02:43:39.713Z,78.33
2022-11-27T02:46:08.489Z,78.28
2022-11-27T02:48:48.856Z,78.55
2022-11-27T02:51:22.151Z,78.22
2022-11-27T02:53:53.422Z,77.92
2022-11-27T02:56:23.379Z,78.59
2022-11-27T02:58:51.262Z,77.87
2022-11-27T03:01:19.398Z,77.67
2022-11-27T03:03:49.319Z,77.83
2022-11-27T03:06:21.714Z,77.17
2022-11-27T03:09:00.460Z,77.29
2022-11-27T03:11:30.846Z,77.80
2022-11-27T03:14:00.018Z,77.07
2022-11-27T03:16:36.116Z,77.00
2022-11-27T03:19:23.607Z,77.24
2022-11-27T03:21:56.885Z,76.47
2022-11-27T03:24:23.816Z,77.06
2022-11-27T03:26:51.416Z,76.90
2022-11-27T03:29:22.041Z,76.80
2022-11-27T03:31:48.941Z,76.56
2022-11-27T03:34:16.520Z,76.51
2022-11-27T03:36:43.287Z,76.66
2022-11-27T03:39:10.137Z,77.11
2022-11-27T03:41:53.460Z,76.75
2022-11-27T03:44:38.729Z,77.01
2022-11-27T03:47:39.917Z,77.39
2022-11-27T03:50:25.519Z,77.26
2022-11-27T03:52:59.051Z,77.33
2022-11-27T03:55:34.551Z,77.40
2022-11-27T03:58:02.062Z,77.62
2022-11-27T04:00:35.201Z,77.11
2022-11-27T04:03:03.288Z,77.40
2022-11-27T04:05:30.170Z,77.11
2022-11-27T04:07:57.150Z,77.09
2022-11-27T04:10:24.010Z,77.35
2022-11-27T04:12:50.743Z,76.52
2022-11-27T04:15:17.533Z,76.91
2022-11-27T04:17:44.282Z,76.75
2022-11-27T04:20:13.583Z,77.38
2022-11-27T04:22:40.796Z,77.30
2022-11-27T04:25:07.918Z,77.18
2022-11-27T04:27:34.654Z,76.87
2022-11-27T04:30:01.843Z,77.15
2022-11-27T04:32:28.731Z,77.07
2022-11-27T04:34:55.439Z,76.96
2022-11-27T04:37:22.290Z,77.00
2022-11-27T04:39:49.073Z,77.00
2022-11-27T04:42:16.744Z,76.76
2022-11-27T04:44:43.621Z,76.62
2022-11-27T04:47:10.436Z,76.67
2022-11-27T04:49:37.232Z,76.97
2022-11-27T04:52:04.366Z,76.85
2022-11-27T04:54:31.247Z,77.24
2022-11-27T04:56:57.980Z,76.98
2022-11-27T04:59:24.734Z,76.72
2022-11-27T05:01:51.524Z,76.82
2022-11-27T05:04:18.301Z,77.00
2022-11-27T05:06:45.065Z,77.34
2022-11-27T05:09:11.850Z,76.64
2022-11-27T05:11:38.605Z,76.78
2022-11-27T05:14:22.644Z,77.06
2022-11-27T05:16:54.084Z,77.24
2022-11-27T05:19:22.597Z,77.09
2022-11-27T05:21:50.018Z,76.90
2022-11-27T05:24:17.886Z,77.15
2022-11-27T05:26:44.662Z,77.00
2022-11-27T05:29:12.112Z,77.60
2022-11-27T05:31:39.663Z,77.73
2022-11-27T05:34:06.620Z,77.48
2022-11-27T05:36:34.014Z,77.63
2022-11-27T05:39:01.667Z,77.53
2022-11-27T05:41:28.557Z,76.90
2022-11-27T05:43:55.481Z,77.05
2022-11-27T05:46:23.387Z,77.16
2022-11-27T05:48:50.286Z,76.99
2022-11-27T05:51:17.840Z,76.83
2022-11-27T05:53:44.946Z,76.22
2022-11-27T05:56:14.489Z,77.16
2022-11-27T05:58:42.864Z,77.10
2022-11-27T06:01:10.710Z,76.62
2022-11-27T06:03:39.182Z,77.11
2022-11-27T06:06:11.391Z,77.14
2022-11-27T06:08:38.360Z,77.16
2022-11-27T06:11:12.549Z,76.57
2022-11-27T06:13:39.382Z,76.92
2022-11-27T06:16:08.213Z,76.59
2022-11-27T06:18:35.193Z,76.62
2022-11-27T06:21:06.432Z,76.58
2022-11-27T06:23:33.271Z,76.54
2022-11-27T06:26:12.444Z,76.49
2022-11-27T06:28:39.240Z,76.62
2022-11-27T06:31:09.878Z,76.33
2022-11-27T06:33:39.149Z,76.71
2022-11-27T06:36:06.437Z,76.66
2022-11-27T06:38:34.633Z,75.92
2022-11-27T06:41:07.118Z,76.17
2022-11-27T06:43:34.705Z,75.83
2022-11-27T06:46:02.332Z,75.77
2022-11-27T06:48:30.285Z,75.98
2022-11-27T06:51:01.819Z,75.67
2022-11-27T06:53:29.584Z,75.72
2022-11-27T06:55:56.897Z,75.84
2022-11-27T06:58:29.394Z,75.00
2022-11-27T07:01:02.997Z,75.13
2022-11-27T07:03:29.809Z,74.96
2022-11-27T07:06:00.629Z,74.57
2022-11-27T07:08:27.922Z,74.24
2022-11-27T07:10:54.739Z,74.45
2022-11-27T07:13:21.530Z,74.68
2022-11-27T07:15:48.301Z,74.88
2022-11-27T07:18:15.011Z,74.46
2022-11-27T07:20:41.837Z,74.72
2022-11-27T07:23:08.623Z,74.14
2022-11-27T07:25:37.589Z,74.22
2022-11-27T07:28:04.392Z,74.06
2022-11-27T07:30:31.098Z,74.04
2022-11-27T07:32:57.899Z,74.09
2022-11-27T07:35:24.676Z,73.98
2022-11-27T07:37:51.403Z,73.62
2022-11-27T07:40:18.600Z,72.98
2022-11-27T07:42:45.521Z,73.10
2022-11-27T07:45:12.303Z,73.44
2022-11-27T07:47:39.262Z,73.53
2022-11-27T07:50:08.519Z,74.05
2022-11-27T07:52:41.144Z,72.71
2022-11-27T07:55:08.972Z,73.34
2022-11-27T07:57:35.761Z,73.47
2022-11-27T08:00:02.678Z,73.30
2022-11-27T08:02:31.148Z,73.34
2022-11-27T08:04:57.849Z,73.66
2022-11-27T08:07:31.094Z,73.02
2022-11-27T08:09:58.422Z,72.75
2022-11-27T08:12:25.673Z,72.54
2022-11-27T08:14:52.592Z,72.35
2022-11-27T08:17:19.537Z,72.65
2022-11-27T08:19:46.287Z,72.09
2022-11-27T08:22:14.295Z,72.08
2022-11-27T08:24:42.714Z,72.63
2022-11-27T08:27:10.425Z,73.01
2022-11-27T08:29:38.134Z,72.42
2022-11-27T08:32:06.024Z,72.42
2022-11-27T08:34:33.427Z,71.55
2022-11-27T08:37:00.285Z,71.97
2022-11-27T08:39:27.438Z,70.81
2022-11-27T08:41:54.565Z,71.35
2022-11-27T08:44:21.515Z,70.10
2022-11-27T08:46:48.412Z,71.35
2022-11-27T08:49:15.386Z,72.21
2022-11-27T08:51:42.176Z,71.73
2022-11-27T08:54:09.597Z,70.78
2022-11-27T08:56:36.302Z,70.61
2022-11-27T08:59:03.240Z,71.24
2022-11-27T09:01:32.022Z,71.36
2022-11-27T09:03:59.661Z,70.93
2022-11-27T09:06:29.852Z,71.47
2022-11-27T09:09:00.992Z,70.52
2022-11-27T09:11:29.374Z,70.47
2022-11-27T09:13:56.109Z,70.22
2022-11-27T09:16:23.206Z,69.73
2022-11-27T09:18:51.677Z,69.85
2022-11-27T09:21:20.794Z,69.29
2022-11-27T09:23:47.687Z,68.53
2022-11-27T09:26:16.322Z,69.04
2022-11-27T09:28:45.217Z,68.34
2022-11-27T09:31:14.432Z,67.86
2022-11-27T09:33:42.173Z,68.09
2022-11-27T09:36:12.938Z,66.44
2022-11-27T09:38:39.883Z,65.72
2022-11-27T09:41:13.059Z,66.35
2022-11-27T09:43:49.931Z,65.73
2022-11-27T09:46:31.308Z,64.61
2022-11-27T09:49:00.102Z,64.42
2022-11-27T09:51:32.123Z,63.71
2022-11-27T09:54:15.596Z,63.33
2022-11-27T09:56:43.122Z,62.31
2022-11-27T09:59:16.519Z,62.46
2022-11-27T10:01:49.333Z,62.04
2022-11-27T10:04:20.396Z,61.18
2022-11-27T10:06:59.148Z,61.08
2022-11-27T10:09:25.868Z,61.39
2022-11-27T10:12:07.924Z,60.34
2022-11-27T10:14:46.938Z,59.80
2022-11-27T10:17:23.630Z,59.93
2022-11-27T10:19:58.195Z,59.55
2022-11-27T10:22:54.867Z,59.97
2022-11-27T10:25:36.727Z,59.13
2022-11-27T10:28:30.209Z,58.98
2022-11-27T10:31:04.048Z,57.71
2022-11-27T10:33:55.207Z,57.64
2022-11-27T10:36:28.829Z,57.83
2022-11-27T10:38:57.434Z,57.56
2022-11-27T10:41:48.620Z,57.36
2022-11-27T10:44:39.188Z,56.42
2022-11-27T10:47:09.020Z,57.25
2022-11-27T10:49:42.042Z,57.39
2022-11-27T10:52:13.032Z,56.63
2022-11-27T10:54:40.636Z,59.11
2022-11-27T10:57:39.057Z,55.88
2022-11-27T11:00:27.039Z,60.95
2022-11-27T11:03:01.334Z,56.98
2022-11-27T11:08:16.862Z,55.71
2022-11-27T11:10:50.379Z,56.23
2022-11-27T11:13:31.577Z,55.23
2022-11-27T11:16:06.066Z,55.65
2022-11-27T11:18:35.169Z,54.57
2022-11-27T11:21:09.065Z,54.93
2022-11-27T11:23:38.630Z,55.37
2022-11-27T11:26:26.979Z,55.87
2022-11-27T11:28:56.109Z,56.17
2022-11-27T11:31:29.191Z,55.97
2022-11-27T11:34:01.754Z,57.36
2022-11-27T11:36:28.909Z,56.74
2022-11-27T11:38:55.948Z,56.30
2022-11-27T11:41:24.272Z,57.55
2022-11-27T11:43:56.658Z,56.98
2022-11-27T11:46:26.718Z,58.44
2022-11-27T11:48:55.557Z,58.40
2022-11-27T11:51:29.450Z,58.29
2022-11-27T11:54:13.443Z,58.29
2022-11-27T11:56:44.933Z,59.10
2022-11-27T11:59:22.831Z,58.70
2022-11-27T12:02:11.257Z,57.88
2022-11-27T12:05:16.837Z,57.75
2022-11-27T12:08:26.904Z,57.90
2022-11-27T12:11:16.250Z,58.48
2022-11-27T12:14:19.955Z,59.24
2022-11-27T12:16:56.169Z,59.20
2022-11-27T12:19:42.097Z,59.35
2022-11-27T12:22:15.425Z,60.64
2022-11-27T12:25:00.922Z,60.17
2022-11-27T12:27:39.797Z,60.05
2022-11-27T12:30:17.032Z,60.04
2022-11-27T12:33:07.279Z,59.31
2022-11-27T12:35:57.309Z,59.03
2022-11-27T12:38:53.268Z,59.39
2022-11-27T12:41:30.506Z,59.26
2022-11-27T12:44:00.422Z,59.36
2022-11-27T12:46:39.724Z,59.52
2022-11-27T12:49:14.752Z,60.24
2022-11-27T12:51:46.901Z,59.80
2022-11-27T12:54:25.903Z,59.93
2022-11-27T12:56:57.932Z,59.70
2022-11-27T12:59:33.833Z,59.88
2022-11-27T13:02:09.713Z,60.20
2022-11-27T13:04:45.342Z,59.79
2022-11-27T13:07:15.019Z,60.00
2022-11-27T13:09:59.341Z,60.88
2022-11-27T13:12:50.786Z,60.56
2022-11-27T13:15:28.284Z,61.20
2022-11-27T13:18:02.137Z,61.54
2022-11-27T13:20:40.163Z,61.98
2022-11-27T13:23:06.931Z,62.37
2022-11-27T13:25:39.421Z,61.50
2022-11-27T13:28:07.018Z,62.36
2022-11-27T13:30:36.331Z,62.40
2022-11-27T13:33:06.308Z,61.76
2022-11-27T13:35:36.622Z,62.47
2022-11-27T13:38:14.434Z,62.73
2022-11-27T13:40:43.667Z,62.44
2022-11-27T13:43:31.268Z,61.99
2022-11-27T13:46:07.460Z,61.16
2022-11-27T13:48:55.647Z,60.88
2022-11-27T13:51:23.629Z,60.97
2022-11-27T13:53:50.425Z,61.07
2022-11-27T13:56:29.297Z,62.23
2022-11-27T13:58:56.076Z,62.10
2022-11-27T14:01:24.559Z,61.94
2022-11-27T14:03:51.373Z,62.21
2022-11-27T14:06:26.342Z,55.88
2022-11-27T14:09:04.575Z,56.71
2022-11-27T14:11:36.853Z,55.04
2022-11-27T14:14:22.208Z,52.83
2022-11-27T14:17:02.779Z,53.25
2022-11-27T14:19:34.601Z,53.96
2022-11-27T14:22:02.572Z,52.58
2022-11-27T14:24:41.162Z,53.37
2022-11-27T14:27:19.952Z,53.59
2022-11-27T14:29:47.518Z,52.42
2022-11-27T14:32:16.110Z,53.35
2022-11-27T14:34:43.799Z,52.37
2022-11-27T14:37:27.800Z,53.06
2022-11-27T14:39:55.675Z,51.73
2022-11-27T14:42:29.289Z,52.01
2022-11-27T14:45:10.727Z,52.65
2022-11-27T14:47:46.183Z,52.79
2022-11-27T14:50:14.380Z,53.32
2022-11-27T14:52:53.644Z,52.95
2022-11-27T14:55:20.833Z,53.65
2022-11-27T14:57:49.347Z,53.12
2022-11-27T15:00:24.306Z,53.06
2022-11-27T15:02:51.868Z,53.47
2022-11-27T15:05:22.132Z,53.41
2022-11-27T15:07:50.949Z,53.59
2022-11-27T15:10:36.053Z,53.54
2022-11-27T15:13:04.102Z,53.25
2022-11-27T15:15:39.992Z,54.02
2022-11-27T15:18:07.985Z,53.38
2022-11-27T15:20:38.839Z,53.61
2022-11-27T15:23:16.333Z,52.86
2022-11-27T15:25:45.342Z,53.05
2022-11-27T15:28:43.412Z,53.12
2022-11-27T15:31:27.692Z,53.82
2022-11-27T15:34:13.796Z,54.21
2022-11-27T15:36:58.773Z,53.61
2022-11-27T15:39:54.642Z,53.64
2022-11-27T15:42:22.656Z,54.27
2022-11-27T15:44:53.649Z,53.27
2022-11-27T15:47:33.917Z,53.29
2022-11-27T15:50:01.150Z,52.99
2022-11-27T15:52:28.168Z,53.68
2022-11-27T15:54:56.675Z,53.45
2022-11-27T15:57:24.488Z,52.27
2022-11-27T15:59:51.281Z,52.31
2022-11-27T16:02:18.541Z,52.66
2022-11-27T16:04:45.425Z,52.17
2022-11-27T16:07:12.283Z,53.25
2022-11-27T16:09:39.909Z,52.46
2022-11-27T16:12:06.971Z,53.43
2022-11-27T16:14:33.909Z,53.34
2022-11-27T16:17:01.542Z,53.26
2022-11-27T16:19:28.485Z,53.85
2022-11-27T16:21:55.342Z,53.34
2022-11-27T16:24:22.132Z,53.90
2022-11-27T16:26:48.987Z,54.03
2022-11-27T16:29:15.772Z,54.26
2022-11-27T16:31:42.612Z,53.87
2022-11-27T16:34:10.168Z,54.11
2022-11-27T16:36:43.295Z,54.13
2022-11-27T16:39:11.625Z,54.44
2022-11-27T16:41:39.006Z,54.81
2022-11-27T16:44:10.875Z,55.18
2022-11-27T16:46:39.018Z,55.08
2022-11-27T16:49:09.246Z,55.71
2022-11-27T16:51:38.156Z,55.80
2022-11-27T16:54:05.864Z,55.84
2022-11-27T16:56:34.670Z,55.76
2022-11-27T16:59:08.688Z,55.44
2022-11-27T17:01:36.663Z,55.11
2022-11-27T17:04:04.958Z,55.18
2022-11-27T17:06:33.578Z,55.69
2022-11-27T17:09:01.997Z,55.51
2022-11-27T17:11:32.727Z,55.97
2022-11-27T17:14:03.078Z,55.79
2022-11-27T17:16:30.119Z,56.89
2022-11-27T17:18:58.263Z,56.95
2022-11-27T17:21:28.011Z,57.03
2022-11-27T17:23:56.739Z,57.29
2022-11-27T17:26:25.483Z,57.00
2022-11-27T17:28:56.245Z,57.30
2022-11-27T17:31:30.847Z,57.39
2022-11-27T17:33:58.088Z,57.23
2022-11-27T17:36:25.993Z,57.83
2022-11-27T17:38:53.746Z,58.03
2022-11-27T17:41:21.358Z,57.71
2022-11-27T17:43:48.659Z,57.45
2022-11-27T17:46:21.103Z,57.26
2022-11-27T17:48:50.769Z,57.47
2022-11-27T17:51:19.287Z,57.33
2022-11-27T17:53:47.437Z,57.22
2022-11-27T17:56:18.323Z,56.76
2022-11-27T17:58:45.314Z,57.02
2022-11-27T18:01:18.430Z,57.44
2022-11-27T18:03:48.832Z,57.86
2022-11-27T18:06:17.315Z,57.68
2022-11-27T18:08:46.043Z,57.84
2022-11-27T18:11:20.324Z,58.03
2022-11-27T18:13:48.189Z,57.85
2022-11-27T18:16:29.258Z,57.94
2022-11-27T18:18:57.344Z,57.70
2022-11-27T18:21:27.174Z,57.96
2022-11-27T18:24:21.898Z,58.06
2022-11-27T18:29:28.663Z,59.06
2022-11-27T18:31:55.584Z,59.15
2022-11-27T18:34:22.377Z,59.44
2022-11-27T18:36:49.177Z,60.08
2022-11-27T18:39:16.019Z,61.05
2022-11-27T18:41:42.906Z,60.06
2022-11-27T18:44:09.877Z,59.67
2022-11-27T18:46:38.476Z,59.96
2022-11-27T18:49:05.962Z,60.08
2022-11-27T18:51:33.114Z,59.27
2022-11-27T18:53:59.912Z,59.47
2022-11-27T18:56:33.366Z,59.70
2022-11-27T18:59:05.334Z,59.70
2022-11-27T19:01:39.538Z,60.12
2022-11-27T19:04:08.699Z,60.17
2022-11-27T19:06:36.871Z,61.41
2022-11-27T19:09:04.374Z,61.52
2022-11-27T19:11:32.767Z,61.57
2022-11-27T19:14:00.043Z,61.15
2022-11-27T19:16:43.910Z,60.61
2022-11-27T19:19:51.938Z,60.91
2022-11-27T19:22:00.845Z,61.71
2022-11-27T19:24:27.645Z,62.50
2022-11-27T19:26:54.526Z,61.68
2022-11-27T19:29:21.389Z,62.03
2022-11-27T19:31:48.243Z,62.86
2022-11-27T19:34:15.270Z,63.04
2022-11-27T19:36:42.025Z,62.90
2022-11-27T19:39:14.046Z,63.23
2022-11-27T19:41:41.738Z,63.94
2022-11-27T19:44:08.528Z,64.01
2022-11-27T19:46:37.414Z,64.15
2022-11-27T19:49:10.713Z,64.29
2022-11-27T19:51:38.895Z,64.33
2022-11-27T19:54:10.354Z,64.63
2022-11-27T19:56:40.125Z,64.61
2022-11-27T19:59:08.508Z,63.74
2022-11-27T20:01:36.005Z,64.13
2022-11-27T20:04:04.113Z,64.07
2022-11-27T20:06:31.017Z,64.10
2022-11-27T20:09:02.941Z,64.60
2022-11-27T20:11:34.896Z,64.94
2022-11-27T20:14:05.192Z,65.79
2022-11-27T20:16:34.336Z,66.44
2022-11-27T20:19:02.624Z,66.55
2022-11-27T20:21:29.435Z,67.28
2022-11-27T20:23:57.312Z,67.65
2022-11-27T20:26:26.704Z,68.28
2022-11-27T20:28:54.575Z,68.29
2022-11-27T20:31:23.976Z,68.58
2022-11-27T20:33:56.760Z,68.77
2022-11-27T20:36:24.875Z,69.68
2022-11-27T20:38:52.415Z,69.51
2022-11-27T20:41:20.655Z,70.79
2022-11-27T20:43:50.811Z,70.69
2022-11-27T20:46:18.093Z,71.33
2022-11-27T20:48:46.684Z,71.55
2022-11-27T20:51:16.292Z,72.09
2022-11-27T20:53:44.787Z,72.59
2022-11-27T20:56:13.092Z,73.42
2022-11-27T20:58:41.245Z,73.04
2022-11-27T21:01:14.168Z,72.97
2022-11-27T21:03:41.360Z,73.19
2022-11-27T21:06:08.607Z,73.70
2022-11-27T21:08:35.867Z,73.53
2022-11-27T21:11:18.328Z,73.68
2022-11-27T21:13:45.380Z,74.11
2022-11-27T21:16:13.682Z,73.56
2022-11-27T21:18:40.911Z,74.47
2022-11-27T21:21:13.926Z,74.59
2022-11-27T21:23:42.128Z,74.66
2022-11-27T21:26:11.186Z,74.07
2022-11-27T21:28:38.024Z,74.72
2022-11-27T21:31:10.176Z,75.00
2022-11-27T21:33:37.739Z,75.16
2022-11-27T21:36:05.377Z,75.09
2022-11-27T21:38:32.804Z,75.31
2022-11-27T21:41:00.196Z,75.30
2022-11-27T21:43:27.214Z,76.17
2022-11-27T21:45:54.581Z,76.20
2022-11-27T21:48:21.682Z,76.29
2022-11-27T21:50:48.510Z,75.97
2022-11-27T21:53:15.697Z,76.46
2022-11-27T21:55:43.082Z,76.76
2022-11-27T21:58:10.069Z,76.72
2022-11-27T22:00:37.183Z,76.83
2022-11-27T22:03:04.011Z,76.49
2022-11-27T22:05:30.862Z,76.54
2022-11-27T22:07:57.805Z,76.58
2022-11-27T22:10:24.688Z,77.36
2022-11-27T22:12:51.547Z,77.43
2022-11-27T22:15:18.517Z,77.28
2022-11-27T22:17:45.682Z,77.32
2022-11-27T22:20:13.708Z,77.77
2022-11-27T22:22:40.758Z,77.31
2022-11-27T22:25:08.402Z,77.15
2022-11-27T22:27:35.282Z,77.12
2022-11-27T22:30:02.059Z,77.06
2022-11-27T22:32:29.194Z,76.71
2022-11-27T22:34:55.932Z,77.09
2022-11-27T22:37:22.756Z,76.89
2022-11-27T22:39:49.669Z,77.00
2022-11-27T22:42:16.626Z,77.49
2022-11-27T22:44:43.645Z,77.40
2022-11-27T22:47:10.629Z,76.88
2022-11-27T22:49:37.511Z,77.18
2022-11-27T22:52:04.447Z,77.12
2022-11-27T22:54:31.387Z,77.03
2022-11-27T22:56:58.251Z,77.30
2022-11-27T22:59:33.981Z,77.68
2022-11-27T23:02:05.287Z,77.83
2022-11-27T23:04:33.582Z,77.61
2022-11-27T23:07:00.348Z,77.08
2022-11-27T23:09:28.353Z,77.64
2022-11-27T23:11:56.504Z,77.71
2022-11-27T23:14:24.202Z,77.87
2022-11-27T23:16:51.039Z,77.42
2022-11-27T23:19:17.838Z,77.68
2022-11-27T23:21:44.726Z,77.00
2022-11-27T23:24:14.164Z,77.32
2022-11-27T23:26:41.303Z,76.86
2022-11-27T23:29:08.614Z,77.40
2022-11-27T23:31:36.291Z,77.06
2022-11-27T23:34:10.082Z,77.28
2022-11-27T23:36:36.956Z,77.52
2022-11-27T23:39:05.932Z,77.04
2022-11-27T23:41:32.644Z,77.57
2022-11-27T23:43:59.563Z,77.62
2022-11-27T23:46:27.905Z,77.71
2022-11-27T23:48:55.934Z,77.34
2022-11-27T23:51:25.973Z,77.54
2022-11-27T23:53:53.608Z,77.95
2022-11-27T23:56:22.786Z,78.18
2022-11-27T23:58:49.629Z,78.07
